WetterOnline ( http://www.wetteronline.de )

Wetter aktuell PLZ Bereich 71543

Aktuelles Wetter: Kaisersbach-Cronhütte (489m)

6-stündlich | Neueste Meldungen
Ortszeit Temperatur Wetter
So, 24.06. 20:00 16.7° C bewölkt
So, 24.06. 14:00 16.3° C bewölkt
So, 24.06. 8:00 12.6° C bedeckt
So, 24.06. 2:00 8.2° C leicht bewölkt
Sa, 23.06. 20:00 15.6° C bedeckt
Sa, 23.06. 14:00 14.6° C bewölkt
Sa, 23.06. 8:00 10.1° C leicht bewölkt
Sa, 23.06. 2:00 5.1° C wolkenlos
Ortszeit Temperatur Wetter
So, 24.06. 22:30 14.2° C bedeckt
So, 24.06. 22:20 14.2° C bedeckt
So, 24.06. 22:10 14.4° C bedeckt
So, 24.06. 22:00 15.2° C bewölkt
So, 24.06. 21:50 15.2° C bewölkt
So, 24.06. 21:40 15.2° C bedeckt
So, 24.06. 21:30 15.2° C bedeckt
So, 24.06. 21:00 15.3° C bedeckt
So, 24.06. 20:30 16.4° C bedeckt
So, 24.06. 20:00 16.7° C bewölkt
So, 24.06. 19:30 17.1° C wolkig
Ortszeit Relative Feuchte Sichtweite
So, 24.06. 20:00 57% 55 km
So, 24.06. 14:00 56% 55 km
So, 24.06. 8:00 72% 25 km
So, 24.06. 2:00 90% 26 km
Sa, 23.06. 20:00 54% 55 km
Sa, 23.06. 14:00 53% 35 km
Sa, 23.06. 8:00 75% 26 km
Sa, 23.06. 2:00 94% 22 km
Ortszeit Relative Feuchte Sichtweite
So, 24.06. 22:30 72% 45 km
So, 24.06. 22:20 72% -
So, 24.06. 22:10 71% -
So, 24.06. 22:00 65% 40 km
So, 24.06. 21:50 65% -
So, 24.06. 21:40 66% -
So, 24.06. 21:30 69% 50 km
So, 24.06. 21:00 70% 55 km
So, 24.06. 20:30 60% 50 km
So, 24.06. 20:00 57% 55 km
So, 24.06. 19:30 55% 60 km
Ortszeit Niederschlagsmenge Niederschlagsart
So, 24.06. 20:00 0.1 l/m2 in 12 Std. Regen
So, 24.06. 14:00 0.0 l/m2 in 6 Std. -
So, 24.06. 8:00 0.0 l/m2 in 12 Std. -
So, 24.06. 2:00 0.0 l/m2 in 6 Std. -
Sa, 23.06. 20:00 0.0 l/m2 in 12 Std. -
Sa, 23.06. 14:00 0.0 l/m2 in 6 Std. -
Sa, 23.06. 8:00 0.0 l/m2 in 12 Std. -
Sa, 23.06. 2:00 0.0 l/m2 in 6 Std. -
Ortszeit Niederschlagsmenge Niederschlagsart
So, 24.06. 22:30 0.0 l/m2 in 1 Std. -
So, 24.06. 22:20 keine Meldung -
So, 24.06. 22:10 keine Meldung -
So, 24.06. 22:00 0.0 l/m2 in 1 Std. -
So, 24.06. 21:50 keine Meldung -
So, 24.06. 21:40 keine Meldung -
So, 24.06. 21:30 0.0 l/m2 in 1 Std. -
So, 24.06. 21:00 0.0 l/m2 in 1 Std. -
So, 24.06. 20:30 0.0 l/m2 in 1 Std. -
So, 24.06. 20:00 0.0 l/m2 in 1 Std. Regen
So, 24.06. 19:30 0.0 l/m2 in 1 Std. -
Ortszeit Stärke Spitze Richtung
km/h Bft. km/h Grad Sektor
So, 24.06. 20:00 7 2 20 300° NW
So, 24.06. 14:00 9 2 19 10° N
So, 24.06. 8:00 2 1 6 70° O
So, 24.06. 2:00 0 0 18 - -
Sa, 23.06. 20:00 7 2 32 340° N
Sa, 23.06. 14:00 11 2 25 320° NW
Sa, 23.06. 8:00 7 2 11 350° N
Sa, 23.06. 2:00 0 0 22 - -
Ortszeit Stärke Spitze Richtung
km/h Bft. km/h Grad Sektor
So, 24.06. 22:30 4 1 4 300° NW
So, 24.06. 22:20 4 1 - 300° NW
So, 24.06. 22:10 4 1 - 330° NW
So, 24.06. 22:00 4 1 11 320° NW
So, 24.06. 21:50 4 1 - 320° NW
So, 24.06. 21:40 4 1 - 310° NW
So, 24.06. 21:30 4 1 11 320° NW
So, 24.06. 21:00 4 1 14 290° W
So, 24.06. 20:30 4 1 14 290° W
So, 24.06. 20:00 7 2 17 300° NW
So, 24.06. 19:30 7 2 18 300° NW
Ortszeit Untergrenze Bedeckung Gattung
total tief tief mittel hoch
So, 24.06. 20:00 1800 m 8/8 6/8 - - -
So, 24.06. 14:00 1350 m 8/8 6/8 - - -
So, 24.06. 8:00 3000 m 8/8 8/8 - - -
So, 24.06. 2:00 1320 m 5/8 3/8 - - -
Sa, 23.06. 20:00 1380 m 8/8 8/8 - - -
Sa, 23.06. 14:00 1200 m 7/8 6/8 - - -
Sa, 23.06. 8:00 7500 m 4/8 0/8 - - -
Sa, 23.06. 2:00 - 0/8 0/8 - - -
Ortszeit Bedeckungsgrad in Achtel und Wolkenuntergrenze
So, 24.06. 22:30 2(1230m) 7(1800m) 8(2700m)
So, 24.06. 22:20 2(1230m) 7(1800m) 8(2700m)
So, 24.06. 22:10 1(1200m) 8(1800m) 8(2700m)
So, 24.06. 22:00 7(1500m) 7(1800m) 7(2700m)
So, 24.06. 21:50 7(1500m) 7(1800m)
So, 24.06. 21:40 1(1260m) 8(1500m)
So, 24.06. 21:30 3(1260m) 8(1500m)
So, 24.06. 21:00 4(1500m) 8(1800m) 8(1800m)
So, 24.06. 20:30 8(2100m) 8(3300m)
So, 24.06. 20:00 4(1800m) 6(2400m) 8(3300m)
So, 24.06. 19:30 1(2100m) 8(3300m)
Ortszeit Luftdruck NN (hPa) Tendenz (hPa in 3 Std.)
So, 24.06. 20:00 1019 - 0,5
So, 24.06. 14:00 1021 - 0,5
So, 24.06. 8:00 1022 - 0,1
So, 24.06. 2:00 1025 - 0,3
Sa, 23.06. 20:00 1023 - 0,5
Sa, 23.06. 14:00 1025 - 0,3
Sa, 23.06. 8:00 1027 + 0,4
Sa, 23.06. 2:00 1028 - 0,1
Ortszeit Luftdruck NN (hPa) Tendenz (hPa in 3 Std.)
So, 24.06. 22:30 1020 + 0,3
So, 24.06. 22:20 1020 keine Meldung
So, 24.06. 22:10 1020 keine Meldung
So, 24.06. 22:00 1020 + 0,2
So, 24.06. 21:50 1020 keine Meldung
So, 24.06. 21:40 1020 keine Meldung
So, 24.06. 21:30 1020 0,0
So, 24.06. 21:00 1020 - 0,1
So, 24.06. 20:30 1019 - 0,5
So, 24.06. 20:00 1019 - 0,5
So, 24.06. 19:30 1019 - 0,7
Ortszeit Schneehöhe (cm)
So, 24.06. 20:00 -
So, 24.06. 14:00 -
So, 24.06. 8:00 -
So, 24.06. 2:00 -
Sa, 23.06. 20:00 -
Sa, 23.06. 14:00 -
Sa, 23.06. 8:00 -
Sa, 23.06. 2:00 -
Ortszeit Schneehöhe (cm)
So, 24.06. 22:30 -
So, 24.06. 22:20 -
So, 24.06. 22:10 -
So, 24.06. 22:00 -
So, 24.06. 21:50 -
So, 24.06. 21:40 -
So, 24.06. 21:30 -
So, 24.06. 21:00 -
So, 24.06. 20:30 -
So, 24.06. 20:00 -
So, 24.06. 19:30 -
Link zu dieser Seite / Seite empfehlen

Das Wetter in ...